sensor_id;sensor_type;location;lat;lon;timestamp;pressure;altitude;pressure_sealevel;temperature;humidity
8049;BME280;20935;42.660;23.342;2023-05-12T00:02:36;94992.03;;;19.55;60.95
8049;BME280;20935;42.660;23.342;2023-05-12T00:05:22;94994.00;;;19.54;60.91
8049;BME280;20935;42.660;23.342;2023-05-12T00:08:07;94992.03;;;19.55;60.94
8049;BME280;20935;42.660;23.342;2023-05-12T00:10:53;94989.31;;;19.55;61.01
8049;BME280;20935;42.660;23.342;2023-05-12T00:13:38;94985.09;;;19.54;60.92
8049;BME280;20935;42.660;23.342;2023-05-12T00:16:26;94989.31;;;19.55;61.14
8049;BME280;20935;42.660;23.342;2023-05-12T00:19:11;94985.09;;;19.54;60.87
8049;BME280;20935;42.660;23.342;2023-05-12T00:21:56;94990.81;;;19.56;60.83
8049;BME280;20935;42.660;23.342;2023-05-12T00:24:42;94981.16;;;19.55;60.80
8049;BME280;20935;42.660;23.342;2023-05-12T00:27:27;94988.88;;;19.56;60.54
8049;BME280;20935;42.660;23.342;2023-05-12T00:30:15;94985.38;;;19.56;60.36
8049;BME280;20935;42.660;23.342;2023-05-12T00:33:01;94985.38;;;19.56;60.25
8049;BME280;20935;42.660;23.342;2023-05-12T00:35:46;94988.44;;;19.58;60.43
8049;BME280;20935;42.660;23.342;2023-05-12T00:38:32;94988.44;;;19.58;60.26
8049;BME280;20935;42.660;23.342;2023-05-12T00:41:20;94983.44;;;19.56;60.01
8049;BME280;20935;42.660;23.342;2023-05-12T00:44:05;94984.19;;;19.57;59.80
8049;BME280;20935;42.660;23.342;2023-05-12T00:46:51;94997.78;;;19.57;60.19
8049;BME280;20935;42.660;23.342;2023-05-12T00:49:38;94994.00;;;19.54;59.97
8049;BME280;20935;42.660;23.342;2023-05-12T00:52:26;94999.44;;;19.54;59.94
8049;BME280;20935;42.660;23.342;2023-05-12T00:55:11;94996.41;;;19.52;60.05
8049;BME280;20935;42.660;23.342;2023-05-12T00:57:57;94996.81;;;19.51;59.88
8049;BME280;20935;42.660;23.342;2023-05-12T01:00:42;95002.25;;;19.51;59.78
8049;BME280;20935;42.660;23.342;2023-05-12T01:03:28;94998.47;;;19.48;59.73
8049;BME280;20935;42.660;23.342;2023-05-12T01:06:19;95001.97;;;19.49;59.72
8049;BME280;20935;42.660;23.342;2023-05-12T01:09:06;95010.13;;;19.49;59.70
8049;BME280;20935;42.660;23.342;2023-05-12T01:11:52;95000.44;;;19.48;59.83
8049;BME280;20935;42.660;23.342;2023-05-12T01:14:38;95010.53;;;19.47;59.91
8049;BME280;20935;42.660;23.342;2023-05-12T01:17:28;95002.84;;;19.46;59.87
8049;BME280;20935;42.660;23.342;2023-05-12T01:20:17;95007.06;;;19.47;59.76
8049;BME280;20935;42.660;23.342;2023-05-12T01:23:05;95007.84;;;19.47;59.82
8049;BME280;20935;42.660;23.342;2023-05-12T01:25:51;95009.06;;;19.46;59.45
8049;BME280;20935;42.660;23.342;2023-05-12T01:28:38;95017.63;;;19.45;59.91
8049;BME280;20935;42.660;23.342;2023-05-12T01:31:25;95007.53;;;19.45;59.39
8049;BME280;20935;42.660;23.342;2023-05-12T01:34:13;95013.41;;;19.44;59.47
8049;BME280;20935;42.660;23.342;2023-05-12T01:37:01;95005.72;;;19.42;59.48
8049;BME280;20935;42.660;23.342;2023-05-12T01:39:47;95011.88;;;19.43;59.59
8049;BME280;20935;42.660;23.342;2023-05-12T01:42:32;95004.47;;;19.43;59.50
8049;BME280;20935;42.660;23.342;2023-05-12T01:45:19;95002.19;;;19.42;59.20
8049;BME280;20935;42.660;23.342;2023-05-12T01:48:05;95000.69;;;19.41;59.48
8049;BME280;20935;42.660;23.342;2023-05-12T01:50:50;95006.13;;;19.41;59.14
8049;BME280;20935;42.660;23.342;2023-05-12T01:53:36;95006.13;;;19.41;59.08
8049;BME280;20935;42.660;23.342;2023-05-12T01:56:21;95010.78;;;19.40;59.13
8049;BME280;20935;42.660;23.342;2023-05-12T01:59:07;95003.09;;;19.39;59.11
8049;BME280;20935;42.660;23.342;2023-05-12T02:01:54;95000.38;;;19.39;58.97
8049;BME280;20935;42.660;23.342;2023-05-12T02:04:39;94997.66;;;19.39;58.95
8049;BME280;20935;42.660;23.342;2023-05-12T02:07:25;95005.03;;;19.38;58.79
8049;BME280;20935;42.660;23.342;2023-05-12T02:10:10;95008.19;;;19.37;58.82
8049;BME280;20935;42.660;23.342;2023-05-12T02:12:56;95000.06;;;19.37;58.99
8049;BME280;20935;42.660;23.342;2023-05-12T02:15:41;95003.97;;;19.36;58.81
8049;BME280;20935;42.660;23.342;2023-05-12T02:18:28;95001.25;;;19.36;58.91
8049;BME280;20935;42.660;23.342;2023-05-12T02:21:14;95010.16;;;19.36;58.76
8049;BME280;20935;42.660;23.342;2023-05-12T02:23:59;95005.91;;;19.35;58.78
8049;BME280;20935;42.660;23.342;2023-05-12T02:26:45;95007.56;;;19.33;58.81
8049;BME280;20935;42.660;23.342;2023-05-12T02:29:30;95002.91;;;19.33;58.84
8049;BME280;20935;42.660;23.342;2023-05-12T02:32:15;95002.13;;;19.33;58.76
8049;BME280;20935;42.660;23.342;2023-05-12T02:35:03;95000.63;;;19.32;58.72
8049;BME280;20935;42.660;23.342;2023-05-12T02:37:48;95006.50;;;19.30;58.65
8049;BME280;20935;42.660;23.342;2023-05-12T02:40:34;95003.03;;;19.30;58.78
8049;BME280;20935;42.660;23.342;2023-05-12T02:43:19;94995.63;;;19.30;58.78
8049;BME280;20935;42.660;23.342;2023-05-12T02:46:04;94999.56;;;19.29;58.55
8049;BME280;20935;42.660;23.342;2023-05-12T02:48:50;94998.34;;;19.30;58.53
8049;BME280;20935;42.660;23.342;2023-05-12T02:51:37;95003.03;;;19.30;58.61
8049;BME280;20935;42.660;23.342;2023-05-12T02:54:22;94998.34;;;19.30;58.48
8049;BME280;20935;42.660;23.342;2023-05-12T02:57:07;94991.84;;;19.28;58.41
8049;BME280;20935;42.660;23.342;2023-05-12T02:59:54;94997.25;;;19.28;58.40
8049;BME280;20935;42.660;23.342;2023-05-12T03:02:39;95005.88;;;19.26;58.13
8049;BME280;20935;42.660;23.342;2023-05-12T03:05:25;94998.50;;;19.27;58.22
8049;BME280;20935;42.660;23.342;2023-05-12T03:08:12;95003.91;;;19.27;58.10
8049;BME280;20935;42.660;23.342;2023-05-12T03:10:57;95011.31;;;19.26;58.26
8049;BME280;20935;42.660;23.342;2023-05-12T03:13:43;94998.16;;;19.24;58.21
8049;BME280;20935;42.660;23.342;2023-05-12T03:16:28;95010.22;;;19.23;58.03
8049;BME280;20935;42.660;23.342;2023-05-12T03:19:14;95006.75;;;19.23;57.99
8049;BME280;20935;42.660;23.342;2023-05-12T03:21:59;95006.00;;;19.22;57.99
8049;BME280;20935;42.660;23.342;2023-05-12T03:24:47;94999.81;;;19.22;58.03
8049;BME280;20935;42.660;23.342;2023-05-12T03:27:33;95007.50;;;19.23;58.15
8049;BME280;20935;42.660;23.342;2023-05-12T03:30:19;95015.97;;;19.26;58.20
8049;BME280;20935;42.660;23.342;2023-05-12T03:33:04;95018.69;;;19.26;58.13
8049;BME280;20935;42.660;23.342;2023-05-12T03:35:49;95017.16;;;19.24;58.15
8049;BME280;20935;42.660;23.342;2023-05-12T03:38:35;95019.88;;;19.24;57.99
8049;BME280;20935;42.660;23.342;2023-05-12T03:41:22;95027.28;;;19.24;58.12
8049;BME280;20935;42.660;23.342;2023-05-12T03:44:07;95024.25;;;19.22;57.95
8049;BME280;20935;42.660;23.342;2023-05-12T03:46:53;95019.25;;;19.20;57.82
8049;BME280;20935;42.660;23.342;2023-05-12T03:49:39;95016.53;;;19.20;58.04
8049;BME280;20935;42.660;23.342;2023-05-12T03:52:24;95013.81;;;19.20;58.02
8049;BME280;20935;42.660;23.342;2023-05-12T03:55:10;95014.25;;;19.19;57.94
8049;BME280;20935;42.660;23.342;2023-05-12T03:57:57;95026.34;;;19.18;58.00
8049;BME280;20935;42.660;23.342;2023-05-12T04:00:42;95028.59;;;19.19;57.93
8049;BME280;20935;42.660;23.342;2023-05-12T04:03:28;95029.81;;;19.18;57.82
8049;BME280;20935;42.660;23.342;2023-05-12T04:06:14;95030.25;;;19.17;57.91
8049;BME280;20935;42.660;23.342;2023-05-12T04:09:00;95025.25;;;19.15;57.84
8049;BME280;20935;42.660;23.342;2023-05-12T04:11:45;95033.84;;;19.14;57.79
8049;BME280;20935;42.660;23.342;2023-05-12T04:14:32;95031.91;;;19.14;57.85
8049;BME280;20935;42.660;23.342;2023-05-12T04:17:18;95037.00;;;19.12;57.91
8049;BME280;20935;42.660;23.342;2023-05-12T04:20:05;95038.19;;;19.11;57.84
8049;BME280;20935;42.660;23.342;2023-05-12T04:22:50;95034.72;;;19.11;57.56
8049;BME280;20935;42.660;23.342;2023-05-12T04:25:38;95039.72;;;19.12;57.68
8049;BME280;20935;42.660;23.342;2023-05-12T04:28:24;95035.03;;;19.13;57.79
8049;BME280;20935;42.660;23.342;2023-05-12T04:31:11;95039.72;;;19.12;57.72
8049;BME280;20935;42.660;23.342;2023-05-12T04:33:56;95039.72;;;19.12;57.74
8049;BME280;20935;42.660;23.342;2023-05-12T04:36:42;95034.63;;;19.14;57.71
8049;BME280;20935;42.660;23.342;2023-05-12T04:39:31;95038.53;;;19.13;57.61
8049;BME280;20935;42.660;23.342;2023-05-12T04:42:16;95040.78;;;19.15;57.65
8049;BME280;20935;42.660;23.342;2023-05-12T04:45:02;95031.13;;;19.14;57.63
8049;BME280;20935;42.660;23.342;2023-05-12T04:47:49;95033.38;;;19.15;57.65
8049;BME280;20935;42.660;23.342;2023-05-12T04:50:35;95038.81;;;19.15;57.71
8049;BME280;20935;42.660;23.342;2023-05-12T04:53:20;95040.03;;;19.14;57.30
8049;BME280;20935;42.660;23.342;2023-05-12T04:56:06;95039.59;;;19.16;57.54
8049;BME280;20935;42.660;23.342;2023-05-12T04:58:51;95043.06;;;19.16;57.58
8049;BME280;20935;42.660;23.342;2023-05-12T05:01:37;95051.97;;;19.17;57.42
8049;BME280;20935;42.660;23.342;2023-05-12T05:04:24;95041.88;;;19.17;57.31
8049;BME280;20935;42.660;23.342;2023-05-12T05:07:09;95048.06;;;19.18;57.19
8049;BME280;20935;42.660;23.342;2023-05-12T05:09:55;95044.59;;;19.17;57.12
8049;BME280;20935;42.660;23.342;2023-05-12T05:12:41;95043.19;;;19.13;57.38
8049;BME280;20935;42.660;23.342;2023-05-12T05:15:26;95044.38;;;19.12;57.36
8049;BME280;20935;42.660;23.342;2023-05-12T05:18:11;95047.44;;;19.14;57.12
8049;BME280;20935;42.660;23.342;2023-05-12T05:20:58;95047.44;;;19.14;57.31
8049;BME280;20935;42.660;23.342;2023-05-12T05:23:44;95050.03;;;19.17;57.11
8049;BME280;20935;42.660;23.342;2023-05-12T05:26:29;95054.34;;;19.15;56.76
8049;BME280;20935;42.660;23.342;2023-05-12T05:29:14;95053.63;;;19.14;56.97
8049;BME280;20935;42.660;23.342;2023-05-12T05:32:00;95056.63;;;19.16;57.00
8049;BME280;20935;42.660;23.342;2023-05-12T05:34:45;95054.69;;;19.17;56.88
8049;BME280;20935;42.660;23.342;2023-05-12T05:37:32;95054.34;;;19.15;56.95
8049;BME280;20935;42.660;23.342;2023-05-12T05:40:18;95054.69;;;19.17;56.96
8049;BME280;20935;42.660;23.342;2023-05-12T05:43:03;95055.44;;;19.17;56.91
8049;BME280;20935;42.660;23.342;2023-05-12T05:45:49;95055.44;;;19.17;57.01
8049;BME280;20935;42.660;23.342;2023-05-12T05:48:35;95060.50;;;19.06;57.09
8049;BME280;20935;42.660;23.342;2023-05-12T05:51:20;95059.91;;;18.77;57.27
8049;BME280;20935;42.660;23.342;2023-05-12T05:54:07;95061.59;;;18.24;57.73
8049;BME280;20935;42.660;23.342;2023-05-12T05:56:52;95057.69;;;18.12;58.05
8049;BME280;20935;42.660;23.342;2023-05-12T05:59:38;95063.31;;;18.05;57.97
8049;BME280;20935;42.660;23.342;2023-05-12T06:02:23;95065.06;;;18.24;57.09
8049;BME280;20935;42.660;23.342;2023-05-12T06:05:09;95060.63;;;18.43;56.47
8049;BME280;20935;42.660;23.342;2023-05-12T06:07:56;95066.38;;;18.58;56.28
8049;BME280;20935;42.660;23.342;2023-05-12T06:10:43;95061.69;;;18.71;56.77
8049;BME280;20935;42.660;23.342;2023-05-12T06:13:29;95073.38;;;18.81;56.72
8049;BME280;20935;42.660;23.342;2023-05-12T06:16:16;95071.63;;;18.87;56.55
8049;BME280;20935;42.660;23.342;2023-05-12T06:19:01;95066.84;;;18.91;56.74
8049;BME280;20935;42.660;23.342;2023-05-12T06:21:47;95076.34;;;18.95;56.90
8049;BME280;20935;42.660;23.342;2023-05-12T06:24:32;95071.56;;;18.99;56.84
8049;BME280;20935;42.660;23.342;2023-05-12T06:27:19;95074.28;;;18.99;56.85
8049;BME280;20935;42.660;23.342;2023-05-12T06:30:06;95084.28;;;19.02;56.81
8049;BME280;20935;42.660;23.342;2023-05-12T06:32:52;95084.16;;;19.06;57.02
8049;BME280;20935;42.660;23.342;2023-05-12T06:35:38;95083.72;;;19.07;57.06
8049;BME280;20935;42.660;23.342;2023-05-12T06:38:23;95086.00;;;19.09;57.07
8049;BME280;20935;42.660;23.342;2023-05-12T06:41:09;95077.72;;;19.12;57.02
8049;BME280;20935;42.660;23.342;2023-05-12T06:43:56;95094.78;;;19.13;57.05
8049;BME280;20935;42.660;23.342;2023-05-12T06:46:43;95094.34;;;19.14;57.11
8049;BME280;20935;42.660;23.342;2023-05-12T06:49:28;95088.94;;;19.14;57.17
8049;BME280;20935;42.660;23.342;2023-05-12T06:52:14;95097.06;;;19.14;57.13
8049;BME280;20935;42.660;23.342;2023-05-12T06:55:00;95093.59;;;19.14;57.14
8049;BME280;20935;42.660;23.342;2023-05-12T06:57:46;95090.00;;;19.17;57.13
8049;BME280;20935;42.660;23.342;2023-05-12T07:00:33;95087.28;;;19.17;57.21
8049;BME280;20935;42.660;23.342;2023-05-12T07:03:18;95085.31;;;19.17;57.18
8049;BME280;20935;42.660;23.342;2023-05-12T07:06:03;95088.03;;;19.17;57.11
8049;BME280;20935;42.660;23.342;2023-05-12T07:08:49;95090.75;;;19.17;57.16
8049;BME280;20935;42.660;23.342;2023-05-12T07:11:34;95086.94;;;19.15;57.11
8049;BME280;20935;42.660;23.342;2023-05-12T07:14:19;95093.13;;;19.15;57.03
8049;BME280;20935;42.660;23.342;2023-05-12T07:17:06;95091.19;;;19.16;56.74
8049;BME280;20935;42.660;23.342;2023-05-12T07:19:52;95098.44;;;19.19;56.79
8049;BME280;20935;42.660;23.342;2023-05-12T07:22:37;95096.19;;;19.17;56.89
8049;BME280;20935;42.660;23.342;2023-05-12T07:25:22;95106.28;;;19.17;56.54
8049;BME280;20935;42.660;23.342;2023-05-12T07:28:08;95100.53;;;19.15;56.50
8049;BME280;20935;42.660;23.342;2023-05-12T07:30:54;95092.50;;;19.11;56.44
8049;BME280;20935;42.660;23.342;2023-05-12T07:33:41;95097.94;;;19.11;56.50
8049;BME280;20935;42.660;23.342;2023-05-12T07:36:26;95093.72;;;19.10;56.35
8049;BME280;20935;42.660;23.342;2023-05-12T07:39:12;95101.09;;;19.10;56.25
8049;BME280;20935;42.660;23.342;2023-05-12T07:42:02;95102.28;;;19.09;56.32
8049;BME280;20935;42.660;23.342;2023-05-12T07:44:48;95101.88;;;19.10;56.16
8049;BME280;20935;42.660;23.342;2023-05-12T07:47:33;95102.28;;;19.09;56.28
8049;BME280;20935;42.660;23.342;2023-05-12T07:50:20;95096.44;;;19.10;56.21
8049;BME280;20935;42.660;23.342;2023-05-12T07:53:06;95097.63;;;19.09;56.12
8049;BME280;20935;42.660;23.342;2023-05-12T07:55:51;95099.16;;;19.10;56.20
8049;BME280;20935;42.660;23.342;2023-05-12T07:58:36;95092.50;;;19.11;56.15
8049;BME280;20935;42.660;23.342;2023-05-12T08:01:22;95086.63;;;19.13;55.97
8049;BME280;20935;42.660;23.342;2023-05-12T08:04:08;95099.44;;;19.12;55.86
8049;BME280;20935;42.660;23.342;2023-05-12T08:06:54;95094.78;;;19.13;55.59
8049;BME280;20935;42.660;23.342;2023-05-12T08:09:40;95089.22;;;19.16;55.94
8049;BME280;20935;42.660;23.342;2023-05-12T08:12:25;95086.38;;;19.20;55.67
8049;BME280;20935;42.660;23.342;2023-05-12T08:15:11;95090.28;;;19.19;55.49
8049;BME280;20935;42.660;23.342;2023-05-12T08:17:56;95092.59;;;19.20;55.34
8049;BME280;20935;42.660;23.342;2023-05-12T08:20:42;95090.63;;;19.21;55.40
8049;BME280;20935;42.660;23.342;2023-05-12T08:23:29;95089.88;;;19.20;55.49
8049;BME280;20935;42.660;23.342;2023-05-12T08:26:14;95096.06;;;19.21;55.20
8049;BME280;20935;42.660;23.342;2023-05-12T08:29:00;95091.38;;;19.21;55.18
8049;BME280;20935;42.660;23.342;2023-05-12T08:31:45;95095.94;;;19.24;55.33
8049;BME280;20935;42.660;23.342;2023-05-12T08:34:31;95091.13;;;19.29;55.21
8049;BME280;20935;42.660;23.342;2023-05-12T08:37:16;95095.13;;;19.37;55.51
8049;BME280;20935;42.660;23.342;2023-05-12T08:40:08;95096.72;;;19.47;55.60
8049;BME280;20935;42.660;23.342;2023-05-12T08:43:00;95102.69;;;19.54;55.92
8049;BME280;20935;42.660;23.342;2023-05-12T08:45:49;95096.03;;;19.55;55.73
8049;BME280;20935;42.660;23.342;2023-05-12T08:48:37;95094.53;;;19.54;55.89
8049;BME280;20935;42.660;23.342;2023-05-12T08:51:23;95091.06;;;19.54;55.87
8049;BME280;20935;42.660;23.342;2023-05-12T08:54:11;95088.03;;;19.52;56.54
8049;BME280;20935;42.660;23.342;2023-05-12T08:56:59;95088.53;;;19.59;57.21
8049;BME280;20935;42.660;23.342;2023-05-12T08:59:45;95094.59;;;19.63;58.67
8049;BME280;20935;42.660;23.342;2023-05-12T09:02:31;95089.91;;;19.64;58.00
8049;BME280;20935;42.660;23.342;2023-05-12T09:05:17;95098.06;;;19.64;58.59
8049;BME280;20935;42.660;23.342;2023-05-12T09:08:03;95085.56;;;19.66;59.82
8049;BME280;20935;42.660;23.342;2023-05-12T09:10:49;95085.09;;;19.68;60.48
8049;BME280;20935;42.660;23.342;2023-05-12T09:13:41;95082.41;;;19.68;60.98
8049;BME280;20935;42.660;23.342;2023-05-12T09:16:32;95078.47;;;19.69;61.26
8049;BME280;20935;42.660;23.342;2023-05-12T09:19:19;95074.56;;;19.70;61.61
8049;BME280;20935;42.660;23.342;2023-05-12T09:22:04;95073.03;;;19.69;61.48
8049;BME280;20935;42.660;23.342;2023-05-12T09:24:51;95078.78;;;19.71;61.65
8049;BME280;20935;42.660;23.342;2023-05-12T09:27:36;95075.63;;;19.73;62.02
8049;BME280;20935;42.660;23.342;2023-05-12T09:30:30;95077.16;;;19.74;61.38
8049;BME280;20935;42.660;23.342;2023-05-12T09:33:18;95069.75;;;19.74;62.18
8049;BME280;20935;42.660;23.342;2023-05-12T09:36:04;95069.75;;;19.74;62.14
8049;BME280;20935;42.660;23.342;2023-05-12T09:38:59;95065.06;;;19.75;61.78
8049;BME280;20935;42.660;23.342;2023-05-12T09:41:47;95071.25;;;19.75;61.95
8049;BME280;20935;42.660;23.342;2023-05-12T09:44:32;95071.25;;;19.75;62.21
8049;BME280;20935;42.660;23.342;2023-05-12T09:47:19;95071.25;;;19.75;61.90
8049;BME280;20935;42.660;23.342;2023-05-12T09:50:06;95072.78;;;19.76;62.04
8049;BME280;20935;42.660;23.342;2023-05-12T09:52:53;95074.31;;;19.77;62.15
8049;BME280;20935;42.660;23.342;2023-05-12T09:55:42;95077.03;;;19.77;62.02
8049;BME280;20935;42.660;23.342;2023-05-12T09:58:28;95068.88;;;19.77;61.73
8049;BME280;20935;42.660;23.342;2023-05-12T10:01:15;95063.72;;;19.79;61.85
8049;BME280;20935;42.660;23.342;2023-05-12T10:04:04;95070.69;;;19.80;62.01
8049;BME280;20935;42.660;23.342;2023-05-12T10:06:52;95071.44;;;19.81;62.03
8049;BME280;20935;42.660;23.342;2023-05-12T10:09:40;95059.81;;;19.80;62.20
8049;BME280;20935;42.660;23.342;2023-05-12T10:12:26;95057.09;;;19.80;62.19
8049;BME280;20935;42.660;23.342;2023-05-12T10:15:12;95060.56;;;19.81;62.32
8049;BME280;20935;42.660;23.342;2023-05-12T10:17:58;95053.47;;;19.83;62.27
8049;BME280;20935;42.660;23.342;2023-05-12T10:20:46;95053.03;;;19.85;62.00
8049;BME280;20935;42.660;23.342;2023-05-12T10:23:33;95061.97;;;19.85;62.41
8049;BME280;20935;42.660;23.342;2023-05-12T10:26:20;95060.31;;;19.88;62.24
8049;BME280;20935;42.660;23.342;2023-05-12T10:29:06;95054.72;;;19.91;62.40
8049;BME280;20935;42.660;23.342;2023-05-12T10:31:52;95048.53;;;19.91;63.14
8049;BME280;20935;42.660;23.342;2023-05-12T10:34:39;95046.56;;;19.91;63.59
8049;BME280;20935;42.660;23.342;2023-05-12T10:37:27;95041.47;;;19.93;63.94
8049;BME280;20935;42.660;23.342;2023-05-12T10:40:22;95046.44;;;19.95;63.93
8049;BME280;20935;42.660;23.342;2023-05-12T10:43:19;95035.13;;;19.96;63.21
8049;BME280;20935;42.660;23.342;2023-05-12T10:46:09;95031.22;;;19.97;63.21
8049;BME280;20935;42.660;23.342;2023-05-12T10:49:00;95035.88;;;19.97;63.15
8049;BME280;20935;42.660;23.342;2023-05-12T10:51:48;95027.28;;;19.98;62.94
8049;BME280;20935;42.660;23.342;2023-05-12T10:54:39;95034.56;;;20.01;62.58
8049;BME280;20935;42.660;23.342;2023-05-12T10:57:27;95032.59;;;20.02;62.43
8049;BME280;20935;42.660;23.342;2023-05-12T11:00:14;95038.78;;;20.02;62.33
8049;BME280;20935;42.660;23.342;2023-05-12T11:03:01;95038.78;;;20.02;62.22
8049;BME280;20935;42.660;23.342;2023-05-12T11:05:57;95038.03;;;20.02;62.01
8049;BME280;20935;42.660;23.342;2023-05-12T11:08:45;95035.75;;;20.00;62.18
8049;BME280;20935;42.660;23.342;2023-05-12T11:11:33;95041.50;;;20.02;62.02
8049;BME280;20935;42.660;23.342;2023-05-12T11:14:19;95038.78;;;20.02;61.80
8049;BME280;20935;42.660;23.342;2023-05-12T11:17:05;95045.72;;;20.03;61.82
8049;BME280;20935;42.660;23.342;2023-05-12T11:19:50;95047.38;;;20.01;61.72
8049;BME280;20935;42.660;23.342;2023-05-12T11:22:36;95042.38;;;19.99;61.70
8049;BME280;20935;42.660;23.342;2023-05-12T11:25:25;95046.94;;;20.02;61.54
8049;BME280;20935;42.660;23.342;2023-05-12T11:28:13;95053.88;;;20.03;61.60
8049;BME280;20935;42.660;23.342;2023-05-12T11:30:58;95049.66;;;20.02;61.47
8049;BME280;20935;42.660;23.342;2023-05-12T11:33:43;95052.41;;;20.02;61.21
8049;BME280;20935;42.660;23.342;2023-05-12T11:36:35;95049.06;;;19.98;61.42
8049;BME280;20935;42.660;23.342;2023-05-12T11:39:22;95054.78;;;20.00;61.24
8049;BME280;20935;42.660;23.342;2023-05-12T11:42:08;95048.28;;;19.98;61.28
8049;BME280;20935;42.660;23.342;2023-05-12T11:44:55;95052.19;;;19.97;61.25
8049;BME280;20935;42.660;23.342;2023-05-12T11:47:40;95055.81;;;19.94;61.19
8049;BME280;20935;42.660;23.342;2023-05-12T11:50:26;95051.44;;;19.96;61.10
8049;BME280;20935;42.660;23.342;2023-05-12T11:53:12;95047.97;;;19.96;60.98
8049;BME280;20935;42.660;23.342;2023-05-12T11:55:58;95041.47;;;19.93;60.99
8049;BME280;20935;42.660;23.342;2023-05-12T11:58:51;95047.66;;;19.94;61.07
8049;BME280;20935;42.660;23.342;2023-05-12T12:01:44;95054.28;;;19.93;60.99
8049;BME280;20935;42.660;23.342;2023-05-12T12:04:34;95049.91;;;19.95;60.97
8049;BME280;20935;42.660;23.342;2023-05-12T12:07:27;95052.63;;;19.95;60.67
8049;BME280;20935;42.660;23.342;2023-05-12T12:10:15;95062.47;;;19.93;60.74
8049;BME280;20935;42.660;23.342;2023-05-12T12:13:01;95049.91;;;19.95;60.58
8049;BME280;20935;42.660;23.342;2023-05-12T12:15:46;95057.31;;;19.95;60.67
8049;BME280;20935;42.660;23.342;2023-05-12T12:18:33;95054.16;;;19.96;60.70
8049;BME280;20935;42.660;23.342;2023-05-12T12:21:19;95049.91;;;19.95;60.66
8049;BME280;20935;42.660;23.342;2023-05-12T12:24:05;95060.34;;;19.97;60.58
8049;BME280;20935;42.660;23.342;2023-05-12T12:26:51;95054.16;;;19.96;60.40
8049;BME280;20935;42.660;23.342;2023-05-12T12:29:36;95053.88;;;19.94;60.37
8049;BME280;20935;42.660;23.342;2023-05-12T12:32:22;95050.69;;;19.96;60.32
8049;BME280;20935;42.660;23.342;2023-05-12T12:35:09;95058.84;;;19.96;60.04
8049;BME280;20935;42.660;23.342;2023-05-12T12:37:56;95053.41;;;19.96;60.13
8049;BME280;20935;42.660;23.342;2023-05-12T12:40:41;95054.16;;;19.96;60.15
8049;BME280;20935;42.660;23.342;2023-05-12T12:43:27;95049.91;;;19.95;59.88
8049;BME280;20935;42.660;23.342;2023-05-12T12:46:12;95041.91;;;19.92;59.92
8049;BME280;20935;42.660;23.342;2023-05-12T12:48:57;95050.69;;;19.96;60.00
8049;BME280;20935;42.660;23.342;2023-05-12T12:51:47;95054.16;;;19.96;59.87
8049;BME280;20935;42.660;23.342;2023-05-12T12:54:33;95055.69;;;19.97;59.94
8049;BME280;20935;42.660;23.342;2023-05-12T12:57:18;95054.50;;;19.98;59.72
8049;BME280;20935;42.660;23.342;2023-05-12T13:00:06;95043.28;;;19.96;59.71
8049;BME280;20935;42.660;23.342;2023-05-12T13:02:51;95046.75;;;19.97;59.58
8049;BME280;20935;42.660;23.342;2023-05-12T13:05:37;95050.69;;;19.96;59.66
8049;BME280;20935;42.660;23.342;2023-05-12T13:08:24;95045.25;;;19.96;59.85
8049;BME280;20935;42.660;23.342;2023-05-12T13:11:10;95040.56;;;19.96;59.68
8049;BME280;20935;42.660;23.342;2023-05-12T13:13:55;95035.56;;;19.95;59.47
8049;BME280;20935;42.660;23.342;2023-05-12T13:16:41;95025.44;;;19.95;59.52
8049;BME280;20935;42.660;23.342;2023-05-12T13:19:26;95031.34;;;19.94;59.54
8049;BME280;20935;42.660;23.342;2023-05-12T13:22:11;95026.66;;;19.94;59.44
8049;BME280;20935;42.660;23.342;2023-05-12T13:24:58;95021.22;;;19.94;59.56
8049;BME280;20935;42.660;23.342;2023-05-12T13:27:43;95006.41;;;19.95;59.23
8049;BME280;20935;42.660;23.342;2023-05-12T13:30:29;95011.56;;;19.93;59.25
8049;BME280;20935;42.660;23.342;2023-05-12T13:33:14;94999.47;;;19.94;59.25
8049;BME280;20935;42.660;23.342;2023-05-12T13:36:00;95009.59;;;19.94;59.22
8049;BME280;20935;42.660;23.342;2023-05-12T13:38:45;95006.88;;;19.94;59.13
8049;BME280;20935;42.660;23.342;2023-05-12T13:41:32;95004.91;;;19.94;59.13
8049;BME280;20935;42.660;23.342;2023-05-12T13:44:18;94996.75;;;19.94;59.13
8049;BME280;20935;42.660;23.342;2023-05-12T13:47:04;95000.97;;;19.95;59.07
8049;BME280;20935;42.660;23.342;2023-05-12T13:49:50;95003.25;;;19.97;58.82
8049;BME280;20935;42.660;23.342;2023-05-12T13:52:36;95010.97;;;19.98;58.95
8049;BME280;20935;42.660;23.342;2023-05-12T13:55:21;95009.31;;;20.01;58.89
8049;BME280;20935;42.660;23.342;2023-05-12T13:58:08;95014.00;;;20.00;59.26
8049;BME280;20935;42.660;23.342;2023-05-12T14:00:53;95015.81;;;20.03;59.13
8049;BME280;20935;42.660;23.342;2023-05-12T14:03:38;95019.63;;;20.06;59.32
8049;BME280;20935;42.660;23.342;2023-05-12T14:06:25;95005.13;;;20.09;59.61
8049;BME280;20935;42.660;23.342;2023-05-12T14:09:10;95013.56;;;20.11;59.54
8049;BME280;20935;42.660;23.342;2023-05-12T14:11:55;95018.88;;;20.14;59.59
8049;BME280;20935;42.660;23.342;2023-05-12T14:14:43;95011.78;;;20.17;59.47
8049;BME280;20935;42.660;23.342;2023-05-12T14:17:33;95019.81;;;20.21;59.46
8049;BME280;20935;42.660;23.342;2023-05-12T14:20:18;95017.56;;;20.28;59.94
8049;BME280;20935;42.660;23.342;2023-05-12T14:23:04;95006.56;;;20.32;59.21
8049;BME280;20935;42.660;23.342;2023-05-12T14:25:49;95017.00;;;20.33;59.30
8049;BME280;20935;42.660;23.342;2023-05-12T14:28:34;95011.09;;;20.35;59.10
8049;BME280;20935;42.660;23.342;2023-05-12T14:31:23;95019.28;;;20.35;59.44
8049;BME280;20935;42.660;23.342;2023-05-12T14:34:08;95016.53;;;20.35;58.88
8049;BME280;20935;42.660;23.342;2023-05-12T14:36:55;95004.94;;;20.34;59.07
8049;BME280;20935;42.660;23.342;2023-05-12T14:39:40;95007.66;;;20.34;59.23
8049;BME280;20935;42.660;23.342;2023-05-12T14:42:26;95008.09;;;20.33;59.43